createdAt,value
2023-03-26T00:00:08.384Z,1.20
2023-03-26T00:01:08.385Z,1.50
2023-03-26T00:02:08.433Z,1.30
2023-03-26T00:03:08.526Z,1.30
2023-03-26T00:04:08.438Z,1.80
2023-03-26T00:05:08.427Z,1.20
2023-03-26T00:06:08.408Z,1.50
2023-03-26T00:07:08.361Z,1.30
2023-03-26T00:08:08.324Z,1.60
2023-03-26T00:09:08.373Z,1.60
2023-03-26T00:10:08.355Z,1.50
2023-03-26T00:11:08.322Z,1.60
2023-03-26T00:12:08.288Z,1.30
2023-03-26T00:13:08.276Z,1.20
2023-03-26T00:14:08.224Z,1.40
2023-03-26T00:15:08.200Z,1.40
2023-03-26T00:16:08.256Z,1.10
2023-03-26T00:17:08.176Z,1.50
2023-03-26T00:18:08.151Z,1.40
2023-03-26T00:19:08.159Z,1.20
2023-03-26T00:20:08.143Z,1.50
2023-03-26T00:21:08.136Z,1.30
2023-03-26T00:22:08.120Z,1.30
2023-03-26T00:23:08.076Z,1.30
2023-03-26T00:24:08.055Z,1.10
2023-03-26T00:25:08.051Z,1.20
2023-03-26T00:26:08.046Z,1.10
2023-03-26T00:27:08.059Z,1.30
2023-03-26T00:28:08.014Z,1.10
2023-03-26T00:29:08.026Z,1.20
2023-03-26T00:30:08.006Z,1.20
2023-03-26T00:31:08.002Z,1.10
2023-03-26T00:32:07.996Z,1.30
2023-03-26T00:33:07.973Z,1.20
2023-03-26T00:34:07.962Z,0.80
2023-03-26T00:35:07.929Z,1.00
2023-03-26T00:36:07.958Z,1.20
2023-03-26T00:37:07.935Z,1.20
2023-03-26T00:38:07.926Z,1.20
2023-03-26T00:39:07.911Z,0.80
2023-03-26T00:40:07.902Z,0.90
2023-03-26T00:41:07.878Z,1.20
2023-03-26T00:42:07.853Z,0.90
2023-03-26T00:43:07.857Z,0.90
2023-03-26T00:44:07.819Z,0.70
2023-03-26T00:45:07.819Z,1.10
2023-03-26T00:46:07.785Z,1.10
2023-03-26T00:47:07.766Z,1.10
2023-03-26T00:48:07.807Z,1.10
2023-03-26T00:49:07.753Z,1.20
2023-03-26T00:50:07.753Z,0.90
2023-03-26T00:51:07.718Z,1.10
2023-03-26T00:52:07.724Z,1.20
2023-03-26T00:53:07.707Z,1.30
2023-03-26T00:54:07.729Z,1.00
2023-03-26T00:55:07.717Z,0.60
2023-03-26T00:56:07.653Z,1.00
2023-03-26T00:57:07.695Z,1.20
2023-03-26T00:58:07.661Z,0.80
2023-03-26T00:59:07.668Z,0.90
2023-03-26T01:00:07.608Z,0.70
2023-03-26T01:01:07.638Z,0.90
2023-03-26T01:02:07.591Z,0.90
2023-03-26T01:03:07.643Z,1.30
2023-03-26T01:04:09.154Z,1.00
2023-03-26T01:05:07.628Z,1.00
2023-03-26T01:06:07.539Z,1.00
2023-03-26T01:07:07.513Z,1.00
2023-03-26T01:08:07.510Z,0.90
2023-03-26T01:09:07.506Z,1.00
2023-03-26T01:10:07.497Z,1.00
2023-03-26T01:11:07.465Z,0.80
2023-03-26T01:12:07.447Z,0.90
2023-03-26T01:13:07.456Z,1.20
2023-03-26T01:14:07.437Z,1.10
2023-03-26T01:15:07.384Z,0.90
2023-03-26T01:16:07.446Z,0.90
2023-03-26T01:17:07.406Z,1.00
2023-03-26T01:18:07.360Z,1.10
2023-03-26T01:19:07.392Z,1.10
2023-03-26T01:20:07.344Z,0.90
2023-03-26T01:21:07.324Z,1.20
2023-03-26T01:22:07.326Z,1.10
2023-03-26T01:23:07.325Z,1.00
2023-03-26T01:24:07.339Z,0.80
2023-03-26T01:25:07.329Z,1.10
2023-03-26T01:26:07.249Z,1.40
2023-03-26T01:27:07.240Z,1.20
2023-03-26T01:28:07.317Z,1.30
2023-03-26T01:29:07.232Z,1.50
2023-03-26T01:30:07.209Z,1.50
2023-03-26T01:31:07.232Z,1.60
2023-03-26T01:32:07.195Z,1.50
2023-03-26T01:33:07.334Z,1.50
2023-03-26T01:34:07.173Z,1.40
2023-03-26T01:35:07.154Z,1.80
2023-03-26T01:36:07.172Z,1.90
2023-03-26T01:37:07.132Z,1.60
2023-03-26T01:38:07.094Z,2.00
2023-03-26T01:39:07.126Z,1.60
2023-03-26T01:40:07.118Z,1.50
2023-03-26T01:41:07.049Z,1.40
2023-03-26T01:42:07.060Z,1.10
2023-03-26T01:43:07.024Z,1.20
2023-03-26T01:44:07.032Z,1.30
2023-03-26T01:45:06.997Z,1.20
2023-03-26T01:46:07.063Z,1.10
2023-03-26T01:47:07.011Z,0.90
2023-03-26T01:48:07.040Z,0.90
2023-03-26T01:49:06.968Z,1.00
2023-03-26T01:50:06.942Z,1.00
2023-03-26T01:51:06.923Z,1.00
2023-03-26T01:52:06.918Z,0.70
2023-03-26T01:53:06.914Z,1.00
2023-03-26T01:54:06.902Z,1.20
2023-03-26T01:55:06.950Z,1.10
2023-03-26T01:56:06.912Z,1.20
2023-03-26T01:57:06.899Z,1.10
2023-03-26T01:58:06.843Z,1.00
2023-03-26T01:59:06.829Z,1.10
2023-03-26T02:00:06.801Z,1.30
2023-03-26T02:01:06.833Z,1.30
2023-03-26T02:02:06.858Z,1.50
2023-03-26T02:03:06.891Z,1.70
2023-03-26T02:04:06.770Z,1.30
2023-03-26T02:05:06.746Z,1.20
2023-03-26T02:06:06.731Z,1.10
2023-03-26T02:07:06.739Z,1.10
2023-03-26T02:08:06.745Z,1.30
2023-03-26T02:09:06.674Z,0.80
2023-03-26T02:10:06.724Z,1.20
2023-03-26T02:11:06.662Z,0.80
2023-03-26T02:12:06.637Z,1.30
2023-03-26T02:13:06.682Z,1.00
2023-03-26T02:14:06.692Z,1.00
2023-03-26T02:15:06.618Z,1.00
2023-03-26T02:16:06.639Z,1.00
2023-03-26T02:17:06.567Z,1.00
2023-03-26T02:18:06.587Z,1.70
2023-03-26T02:19:06.575Z,1.10
2023-03-26T02:20:06.553Z,1.20
2023-03-26T02:21:06.538Z,1.30
2023-03-26T02:22:06.503Z,1.40
2023-03-26T02:23:06.498Z,1.50
2023-03-26T02:24:06.513Z,1.50
2023-03-26T02:25:06.454Z,1.30
2023-03-26T02:26:06.477Z,1.70
2023-03-26T02:27:06.487Z,1.20
2023-03-26T02:28:06.448Z,0.70
2023-03-26T02:29:06.465Z,0.80
2023-03-26T02:30:06.399Z,1.10
2023-03-26T02:31:06.395Z,0.70
2023-03-26T02:32:06.408Z,0.90
2023-03-26T02:33:06.392Z,0.70
2023-03-26T02:34:06.378Z,0.80
2023-03-26T02:35:06.334Z,0.70
2023-03-26T02:36:06.411Z,0.90
2023-03-26T02:37:06.318Z,0.70
2023-03-26T02:38:06.300Z,0.60
2023-03-26T02:39:06.290Z,0.70
2023-03-26T02:40:06.289Z,0.50
2023-03-26T02:41:06.265Z,0.50
2023-03-26T02:42:06.248Z,0.70
2023-03-26T02:43:06.263Z,0.60
2023-03-26T02:44:06.239Z,0.50
2023-03-26T02:45:06.222Z,0.80
2023-03-26T02:46:06.239Z,0.80
2023-03-26T02:47:06.192Z,0.90
2023-03-26T02:48:06.159Z,0.80
2023-03-26T02:49:06.156Z,0.60
2023-03-26T02:50:06.152Z,0.60
2023-03-26T02:51:06.117Z,0.70
2023-03-26T02:52:06.144Z,1.00
2023-03-26T02:53:06.093Z,0.80
2023-03-26T02:54:06.105Z,1.00
2023-03-26T02:55:06.091Z,0.90
2023-03-26T02:56:06.093Z,1.10
2023-03-26T02:57:06.120Z,1.60
2023-03-26T02:58:06.078Z,1.20
2023-03-26T02:59:06.032Z,1.50
2023-03-26T03:00:06.019Z,1.30
2023-03-26T03:01:06.012Z,1.30
2023-03-26T03:02:06.068Z,1.70
2023-03-26T03:03:06.059Z,1.50
2023-03-26T03:04:05.974Z,1.40
2023-03-26T03:05:05.933Z,1.60
2023-03-26T03:06:05.936Z,1.20
2023-03-26T03:07:05.904Z,1.10
2023-03-26T03:08:05.931Z,1.00
2023-03-26T03:09:05.892Z,1.30
2023-03-26T03:10:05.861Z,1.20
2023-03-26T03:11:05.889Z,1.80
2023-03-26T03:12:05.840Z,1.20
2023-03-26T03:13:05.859Z,1.30
2023-03-26T03:14:05.827Z,1.40
2023-03-26T03:15:05.818Z,1.20
2023-03-26T03:16:05.817Z,1.40
2023-03-26T03:17:05.837Z,1.00
2023-03-26T03:18:05.829Z,1.50
2023-03-26T03:19:05.752Z,1.60
2023-03-26T03:20:05.757Z,1.10
2023-03-26T03:21:05.756Z,1.10
2023-03-26T03:22:05.753Z,0.90
2023-03-26T03:23:05.697Z,0.70
2023-03-26T03:24:05.696Z,0.80
2023-03-26T03:25:05.679Z,0.80
2023-03-26T03:26:05.684Z,0.80
2023-03-26T03:27:05.667Z,0.90
2023-03-26T03:28:05.649Z,1.20
2023-03-26T03:29:05.635Z,0.80
2023-03-26T03:30:05.624Z,0.80
2023-03-26T03:31:05.607Z,1.00
2023-03-26T03:32:05.640Z,0.90
2023-03-26T03:33:05.599Z,1.20
2023-03-26T03:34:05.552Z,1.60
2023-03-26T03:35:05.540Z,0.90
2023-03-26T03:36:05.553Z,1.20
2023-03-26T03:37:05.544Z,1.20
2023-03-26T03:38:05.512Z,1.70
2023-03-26T03:39:05.512Z,1.10
2023-03-26T03:40:05.531Z,1.70
2023-03-26T03:41:05.449Z,1.70
2023-03-26T03:42:05.464Z,1.40
2023-03-26T03:43:05.452Z,1.60
2023-03-26T03:44:05.447Z,1.50
2023-03-26T03:45:05.421Z,2.00
2023-03-26T03:46:05.408Z,1.40
2023-03-26T03:47:05.379Z,1.70
2023-03-26T03:48:05.433Z,2.00
2023-03-26T03:49:05.367Z,2.10
2023-03-26T03:50:05.360Z,2.40
2023-03-26T03:51:05.344Z,1.90
2023-03-26T03:52:05.318Z,2.30
2023-03-26T03:53:05.325Z,2.70
2023-03-26T03:54:05.290Z,2.10
2023-03-26T03:55:05.315Z,2.30
2023-03-26T03:56:05.267Z,2.60
2023-03-26T03:57:05.310Z,2.40
2023-03-26T03:58:05.257Z,1.90
2023-03-26T03:59:05.240Z,2.00
2023-03-26T04:00:06.892Z,1.90
2023-03-26T04:01:05.223Z,1.60
2023-03-26T04:02:05.200Z,1.70
2023-03-26T04:03:05.239Z,1.80
2023-03-26T04:04:05.264Z,1.90
2023-03-26T04:05:05.137Z,2.10
2023-03-26T04:06:05.198Z,1.90
2023-03-26T04:07:05.124Z,2.00
2023-03-26T04:08:05.136Z,2.10
2023-03-26T04:09:05.118Z,1.60
2023-03-26T04:10:05.067Z,1.40
2023-03-26T04:11:05.076Z,1.80
2023-03-26T04:12:05.058Z,1.60
2023-03-26T04:13:05.067Z,2.00
2023-03-26T04:14:05.071Z,1.90
2023-03-26T04:15:05.034Z,1.90
2023-03-26T04:16:05.033Z,1.70
2023-03-26T04:17:04.994Z,1.90
2023-03-26T04:18:04.986Z,2.30
2023-03-26T04:19:04.993Z,2.20
2023-03-26T04:20:04.968Z,1.90
2023-03-26T04:21:04.950Z,1.80
2023-03-26T04:22:04.925Z,1.60
2023-03-26T04:23:04.894Z,2.00
2023-03-26T04:24:04.891Z,1.70
2023-03-26T04:25:04.909Z,2.30
2023-03-26T04:26:04.857Z,1.70
2023-03-26T04:27:04.845Z,1.60
2023-03-26T04:28:04.829Z,1.50
2023-03-26T04:29:04.802Z,1.40
2023-03-26T04:30:04.841Z,1.40
2023-03-26T04:31:04.825Z,1.60
2023-03-26T04:32:04.820Z,1.60
2023-03-26T04:33:04.815Z,1.30
2023-03-26T04:34:04.779Z,1.30
2023-03-26T04:35:04.805Z,1.60
2023-03-26T04:36:04.767Z,1.10
2023-03-26T04:37:04.754Z,1.00
2023-03-26T04:38:04.749Z,1.20
2023-03-26T04:39:04.819Z,1.40
2023-03-26T04:40:04.676Z,1.40
2023-03-26T04:41:04.708Z,1.30
2023-03-26T04:42:04.775Z,1.10
2023-03-26T04:43:04.655Z,1.40
2023-03-26T04:44:04.649Z,1.50
2023-03-26T04:45:04.621Z,1.30
2023-03-26T04:46:04.635Z,1.80
2023-03-26T04:47:04.623Z,1.70
2023-03-26T04:48:04.603Z,1.30
2023-03-26T04:49:04.542Z,1.20
2023-03-26T04:50:04.564Z,1.20
2023-03-26T04:51:04.537Z,1.30
2023-03-26T04:52:04.542Z,1.30
2023-03-26T04:53:04.503Z,0.90
2023-03-26T04:54:04.496Z,1.10
2023-03-26T04:55:04.509Z,1.20
2023-03-26T04:56:04.494Z,1.40
2023-03-26T04:57:04.513Z,1.20
2023-03-26T04:58:04.454Z,1.30
2023-03-26T04:59:04.571Z,1.70
2023-03-26T05:00:04.401Z,1.20
2023-03-26T05:01:10.354Z,1.30
2023-03-26T05:02:04.388Z,1.20
2023-03-26T05:03:04.459Z,1.20
2023-03-26T05:04:04.425Z,1.20
2023-03-26T05:05:04.333Z,1.20
2023-03-26T05:06:04.336Z,1.10
2023-03-26T05:07:04.333Z,1.10
2023-03-26T05:08:04.386Z,1.30
2023-03-26T05:09:04.284Z,1.40
2023-03-26T05:10:04.286Z,1.70
2023-03-26T05:11:04.292Z,2.00
2023-03-26T05:12:04.230Z,1.40
2023-03-26T05:13:04.240Z,1.50
2023-03-26T05:14:04.256Z,1.20
2023-03-26T05:15:04.230Z,1.60
2023-03-26T05:16:04.223Z,1.50
2023-03-26T05:17:04.204Z,1.30
2023-03-26T05:18:04.262Z,1.60
2023-03-26T05:19:04.147Z,1.40
2023-03-26T05:20:04.148Z,1.60
2023-03-26T05:21:04.144Z,1.50
2023-03-26T05:22:04.134Z,1.00
2023-03-26T05:23:04.107Z,1.30
2023-03-26T05:24:04.108Z,1.20
2023-03-26T05:25:04.122Z,1.60
2023-03-26T05:26:04.066Z,1.50
2023-03-26T05:27:04.093Z,1.30
2023-03-26T05:28:04.023Z,1.30
2023-03-26T05:29:04.022Z,1.20
2023-03-26T05:30:04.030Z,1.40
2023-03-26T05:31:04.000Z,1.20
2023-03-26T05:32:03.997Z,1.30
2023-03-26T05:33:04.063Z,1.30
2023-03-26T05:34:03.944Z,1.20
2023-03-26T05:35:03.990Z,1.00
2023-03-26T05:36:03.988Z,1.20
2023-03-26T05:37:03.990Z,1.10
2023-03-26T05:38:03.898Z,1.00
2023-03-26T05:39:03.910Z,0.90
2023-03-26T05:40:03.874Z,1.00
2023-03-26T05:41:03.894Z,1.00
2023-03-26T05:42:03.866Z,1.70
2023-03-26T05:43:03.831Z,1.00
2023-03-26T05:44:03.826Z,1.00
2023-03-26T05:45:03.832Z,1.00
2023-03-26T05:46:03.923Z,1.30
2023-03-26T05:47:03.855Z,1.00
2023-03-26T05:48:03.770Z,1.20
2023-03-26T05:49:03.759Z,1.50
2023-03-26T05:50:03.762Z,1.50
2023-03-26T05:51:03.763Z,1.80
2023-03-26T05:52:03.737Z,1.30
2023-03-26T05:53:03.723Z,1.40
2023-03-26T05:54:03.705Z,1.70
2023-03-26T05:55:03.690Z,1.60
2023-03-26T05:56:03.657Z,1.20
2023-03-26T05:57:03.677Z,1.60
2023-03-26T05:58:03.658Z,1.70
2023-03-26T05:59:03.655Z,1.70
2023-03-26T06:00:03.657Z,1.30
2023-03-26T06:01:03.627Z,1.20
2023-03-26T06:02:03.621Z,1.70
2023-03-26T06:03:03.754Z,1.40
2023-03-26T06:04:03.717Z,1.80
2023-03-26T06:05:03.543Z,1.40
2023-03-26T06:06:03.581Z,1.50
2023-03-26T06:07:03.533Z,1.50
2023-03-26T06:08:03.541Z,1.20
2023-03-26T06:09:03.485Z,1.10
2023-03-26T06:10:03.522Z,1.40
2023-03-26T06:11:03.474Z,1.80
2023-03-26T06:12:03.445Z,1.30
2023-03-26T06:13:03.436Z,1.40
2023-03-26T06:14:03.462Z,1.80
2023-03-26T06:15:03.467Z,1.80
2023-03-26T06:16:03.452Z,1.70
2023-03-26T06:17:03.410Z,1.40
2023-03-26T06:18:03.392Z,1.70
2023-03-26T06:19:03.435Z,1.60
2023-03-26T06:20:03.356Z,1.60
2023-03-26T06:21:03.368Z,1.20
2023-03-26T06:22:03.313Z,2.20
2023-03-26T06:23:03.303Z,1.60
2023-03-26T06:24:03.301Z,1.20
2023-03-26T06:25:03.292Z,1.90
2023-03-26T06:26:03.270Z,1.60
2023-03-26T06:27:03.269Z,1.80
2023-03-26T06:28:03.233Z,1.30
2023-03-26T06:29:03.258Z,1.50
2023-03-26T06:30:03.250Z,1.30
2023-03-26T06:31:03.265Z,1.40
2023-03-26T06:32:16.267Z,1.50
2023-03-26T06:33:03.202Z,1.30
2023-03-26T06:34:03.171Z,1.20
2023-03-26T06:35:03.211Z,1.40
2023-03-26T06:36:03.186Z,1.20
2023-03-26T06:37:03.140Z,1.40
2023-03-26T06:38:03.104Z,1.30
2023-03-26T06:39:07.656Z,1.40
2023-03-26T06:40:03.070Z,1.10
2023-03-26T06:41:03.071Z,1.20
2023-03-26T06:42:03.083Z,1.30
2023-03-26T06:43:08.531Z,1.80
2023-03-26T06:44:03.053Z,1.10
2023-03-26T06:45:03.062Z,1.40
2023-03-26T06:46:03.022Z,1.00
2023-03-26T06:47:03.059Z,1.70
2023-03-26T06:48:03.048Z,0.90
2023-03-26T06:49:03.019Z,1.60
2023-03-26T06:50:02.994Z,1.30
2023-03-26T06:51:03.106Z,1.10
2023-03-26T06:52:03.003Z,1.10
2023-03-26T06:53:02.956Z,1.00
2023-03-26T06:54:02.994Z,1.10
2023-03-26T06:55:02.954Z,1.20
2023-03-26T06:56:02.918Z,1.30
2023-03-26T06:57:02.952Z,1.20
2023-03-26T06:58:02.934Z,0.60
2023-03-26T06:59:02.921Z,1.10
2023-03-26T07:00:02.916Z,0.90
2023-03-26T07:01:02.823Z,0.70
2023-03-26T07:02:02.815Z,0.80
2023-03-26T07:03:02.850Z,1.40
2023-03-26T07:04:02.844Z,1.00
2023-03-26T07:05:02.763Z,1.30
2023-03-26T07:06:02.767Z,0.70
2023-03-26T07:07:02.748Z,1.00
2023-03-26T07:08:02.710Z,0.90
2023-03-26T07:09:02.758Z,0.80
2023-03-26T07:10:02.695Z,0.80
2023-03-26T07:11:02.700Z,0.50
2023-03-26T07:12:02.662Z,0.90
2023-03-26T07:13:02.666Z,0.80
2023-03-26T07:14:02.647Z,0.90
2023-03-26T07:15:02.639Z,0.70
2023-03-26T07:16:02.650Z,0.80
2023-03-26T07:17:02.597Z,0.70
2023-03-26T07:18:02.617Z,0.80
2023-03-26T07:19:02.564Z,0.60
2023-03-26T07:20:02.565Z,0.80
2023-03-26T07:21:02.535Z,0.80
2023-03-26T07:22:02.534Z,0.90
2023-03-26T07:23:02.537Z,0.90
2023-03-26T07:24:02.508Z,0.70
2023-03-26T07:25:02.535Z,0.80
2023-03-26T07:26:02.469Z,0.80
2023-03-26T07:27:02.474Z,0.90
2023-03-26T07:28:02.442Z,0.70
2023-03-26T07:29:04.007Z,0.90
2023-03-26T07:30:02.471Z,1.00
2023-03-26T07:31:02.425Z,0.90
2023-03-26T07:32:02.448Z,0.80
2023-03-26T07:33:02.473Z,0.60
2023-03-26T07:34:02.527Z,0.70
2023-03-26T07:35:02.382Z,0.90
2023-03-26T07:36:02.361Z,0.70
2023-03-26T07:37:02.355Z,0.80
2023-03-26T07:38:02.316Z,0.70
2023-03-26T07:39:02.298Z,0.60
2023-03-26T07:40:02.293Z,0.60
2023-03-26T07:41:02.271Z,0.50
2023-03-26T07:42:02.275Z,0.80
2023-03-26T07:43:02.277Z,0.50
2023-03-26T07:44:02.244Z,1.00
2023-03-26T07:45:02.250Z,0.80
2023-03-26T07:46:02.223Z,0.70
2023-03-26T07:47:02.221Z,1.10
2023-03-26T07:48:02.254Z,1.00
2023-03-26T07:49:02.177Z,0.80
2023-03-26T07:50:02.199Z,0.90
2023-03-26T07:51:02.126Z,0.70
2023-03-26T07:52:02.127Z,0.50
2023-03-26T07:53:02.131Z,0.80
2023-03-26T07:54:02.095Z,1.10
2023-03-26T07:55:02.090Z,0.70
2023-03-26T07:56:02.153Z,0.90
2023-03-26T07:57:02.360Z,0.80
2023-03-26T07:58:02.076Z,1.20
2023-03-26T07:59:02.094Z,1.00
2023-03-26T08:00:02.020Z,0.90
2023-03-26T08:01:02.013Z,0.60
2023-03-26T08:02:02.020Z,0.60
2023-03-26T08:03:02.144Z,0.90
2023-03-26T08:04:23.579Z,1.00
2023-03-26T08:05:02.083Z,0.60
2023-03-26T08:06:01.946Z,0.80
2023-03-26T08:07:01.976Z,1.00
2023-03-26T08:08:01.992Z,1.10
2023-03-26T08:09:01.926Z,0.90
2023-03-26T08:10:01.896Z,1.10
2023-03-26T08:11:01.912Z,1.10
2023-03-26T08:12:01.867Z,0.60
2023-03-26T08:13:01.857Z,0.60
2023-03-26T08:14:01.854Z,1.00
2023-03-26T08:15:01.845Z,1.20
2023-03-26T08:16:01.864Z,0.80
2023-03-26T08:17:01.847Z,0.80
2023-03-26T08:18:01.853Z,1.00
2023-03-26T08:19:01.773Z,1.10
2023-03-26T08:20:01.787Z,0.80
2023-03-26T08:21:01.743Z,1.20
2023-03-26T08:22:01.715Z,1.60
2023-03-26T08:23:01.707Z,1.10
2023-03-26T08:24:01.702Z,0.90
2023-03-26T08:25:01.679Z,1.50
2023-03-26T08:26:01.657Z,1.20
2023-03-26T08:27:01.644Z,1.10
2023-03-26T08:28:01.660Z,0.70
2023-03-26T08:29:01.639Z,0.90
2023-03-26T08:30:01.667Z,0.80
2023-03-26T08:31:01.674Z,1.00
2023-03-26T08:32:01.593Z,0.90
2023-03-26T08:33:01.611Z,1.10
2023-03-26T08:34:01.577Z,1.10
2023-03-26T08:35:01.556Z,0.90
2023-03-26T08:36:01.577Z,1.10
2023-03-26T08:37:01.508Z,0.80
2023-03-26T08:38:01.529Z,0.90
2023-03-26T08:39:01.516Z,0.80
2023-03-26T08:40:01.482Z,0.90
2023-03-26T08:41:01.472Z,0.90
2023-03-26T08:42:01.435Z,1.20
2023-03-26T08:43:01.437Z,0.90
2023-03-26T08:44:01.428Z,1.30
2023-03-26T08:45:01.439Z,0.90
2023-03-26T08:46:01.419Z,1.00
2023-03-26T08:47:01.395Z,0.90
2023-03-26T08:48:01.433Z,1.10
2023-03-26T08:49:01.369Z,1.00
2023-03-26T08:50:01.372Z,1.30
2023-03-26T08:51:01.452Z,1.00
2023-03-26T08:52:01.313Z,1.10
2023-03-26T08:53:01.325Z,0.90
2023-03-26T08:54:01.298Z,1.20
2023-03-26T08:55:01.289Z,1.10
2023-03-26T08:56:01.304Z,1.50
2023-03-26T08:57:01.287Z,1.30
2023-03-26T08:58:02.885Z,1.30
2023-03-26T08:59:01.229Z,0.90
2023-03-26T09:00:03.018Z,1.20
2023-03-26T09:01:01.205Z,1.10
2023-03-26T09:02:01.213Z,1.60
2023-03-26T09:03:01.236Z,1.10
2023-03-26T09:04:01.242Z,0.90
2023-03-26T09:05:01.172Z,1.20
2023-03-26T09:06:01.133Z,0.70
2023-03-26T09:07:01.144Z,1.00
2023-03-26T09:08:01.093Z,1.30
2023-03-26T09:09:01.152Z,1.00
2023-03-26T09:10:01.069Z,1.30
2023-03-26T09:11:01.080Z,1.30
2023-03-26T09:12:01.101Z,1.20
2023-03-26T09:13:01.052Z,1.20
2023-03-26T09:14:01.064Z,1.30
2023-03-26T09:15:01.016Z,1.40
2023-03-26T09:16:01.027Z,1.40
2023-03-26T09:17:00.998Z,1.20
2023-03-26T09:18:01.022Z,1.10
2023-03-26T09:19:00.975Z,1.10
2023-03-26T09:20:00.945Z,1.20
2023-03-26T09:21:00.934Z,1.20
2023-03-26T09:22:00.923Z,0.80
2023-03-26T09:23:00.902Z,1.20
2023-03-26T09:24:00.926Z,1.10
2023-03-26T09:25:00.927Z,0.70
2023-03-26T09:26:00.859Z,1.20
2023-03-26T09:27:00.893Z,1.10
2023-03-26T09:28:00.863Z,1.10
2023-03-26T09:29:00.820Z,1.00
2023-03-26T09:30:00.845Z,1.40
2023-03-26T09:31:00.801Z,1.20
2023-03-26T09:32:00.795Z,1.30
2023-03-26T09:33:00.771Z,1.60
2023-03-26T09:34:00.768Z,1.10
2023-03-26T09:35:00.742Z,1.50
2023-03-26T09:36:00.780Z,1.10
2023-03-26T09:37:00.755Z,0.90
2023-03-26T09:38:00.696Z,1.00
2023-03-26T09:39:00.706Z,0.90
2023-03-26T09:40:00.695Z,1.40
2023-03-26T09:41:00.648Z,1.50
2023-03-26T09:42:00.673Z,1.20
2023-03-26T09:43:00.645Z,1.50
2023-03-26T09:44:00.642Z,1.00
2023-03-26T09:45:00.617Z,0.80
2023-03-26T09:46:00.660Z,1.00
2023-03-26T09:47:00.574Z,1.20
2023-03-26T09:48:00.595Z,1.00
2023-03-26T09:49:00.550Z,1.00
2023-03-26T09:50:00.562Z,1.00
2023-03-26T09:51:00.526Z,1.10
2023-03-26T09:52:00.552Z,1.50
2023-03-26T09:53:00.523Z,0.90
2023-03-26T09:54:00.498Z,1.20
2023-03-26T09:55:00.483Z,1.00
2023-03-26T09:56:00.469Z,1.20
2023-03-26T09:57:00.571Z,0.80
2023-03-26T09:58:00.510Z,1.20
2023-03-26T09:59:00.463Z,1.20
2023-03-26T10:00:00.440Z,1.50
2023-03-26T10:01:00.422Z,1.30
2023-03-26T10:02:00.426Z,1.10
2023-03-26T10:03:00.398Z,1.00
2023-03-26T10:04:00.410Z,1.00
2023-03-26T10:05:00.408Z,0.90
2023-03-26T10:06:00.354Z,1.10
2023-03-26T10:07:00.333Z,1.00
2023-03-26T10:08:00.321Z,1.70
2023-03-26T10:09:00.308Z,1.00
2023-03-26T10:10:00.306Z,1.00
2023-03-26T10:11:00.283Z,0.80
2023-03-26T10:12:00.312Z,0.90
2023-03-26T10:13:13.651Z,0.60
2023-03-26T10:14:00.271Z,1.60
2023-03-26T10:15:00.202Z,1.10
2023-03-26T10:16:00.215Z,0.80
2023-03-26T10:17:00.266Z,1.20
2023-03-26T10:18:00.245Z,0.70
2023-03-26T10:19:00.182Z,0.80
2023-03-26T10:20:00.179Z,0.80
2023-03-26T10:21:00.148Z,0.80
2023-03-26T10:22:00.162Z,1.20
2023-03-26T10:23:00.101Z,0.70
2023-03-26T10:24:00.113Z,1.10
2023-03-26T10:25:00.110Z,0.90
2023-03-26T10:26:00.100Z,0.90
2023-03-26T10:27:08.334Z,1.00
2023-03-26T10:28:00.051Z,0.70
2023-03-26T10:29:00.052Z,1.20
2023-03-26T10:30:00.056Z,2.10
2023-03-26T10:31:00.049Z,1.60
2023-03-26T10:32:00.048Z,1.60
2023-03-26T10:33:00.043Z,1.10
2023-03-26T10:33:59.982Z,1.20
2023-03-26T10:34:59.952Z,1.30
2023-03-26T10:35:59.977Z,0.90
2023-03-26T10:36:59.930Z,0.90
2023-03-26T10:37:59.905Z,1.30
2023-03-26T10:38:59.891Z,1.00
2023-03-26T10:39:59.888Z,1.30
2023-03-26T10:40:59.873Z,1.20
2023-03-26T10:41:59.845Z,0.80
2023-03-26T10:42:59.857Z,0.70
2023-03-26T10:44:08.151Z,0.90
2023-03-26T10:44:59.829Z,0.90
2023-03-26T10:45:59.838Z,1.10
2023-03-26T10:46:59.772Z,1.20
2023-03-26T10:47:59.808Z,1.00
2023-03-26T10:48:59.780Z,0.60
2023-03-26T10:49:59.785Z,1.30
2023-03-26T10:50:59.748Z,0.80
2023-03-26T10:51:59.732Z,1.30
2023-03-26T10:52:59.718Z,1.10
2023-03-26T10:53:59.757Z,1.10
2023-03-26T10:54:59.687Z,0.80
2023-03-26T10:55:59.706Z,0.90
2023-03-26T10:56:59.686Z,0.80
2023-03-26T10:57:59.655Z,1.00
2023-03-26T10:58:59.694Z,1.30
2023-03-26T10:59:59.628Z,0.90
2023-03-26T11:00:59.623Z,1.10
2023-03-26T11:01:59.621Z,1.00
2023-03-26T11:02:59.627Z,1.00
2023-03-26T11:03:59.573Z,1.10
2023-03-26T11:04:59.531Z,1.00
2023-03-26T11:05:59.586Z,0.80
2023-03-26T11:06:59.521Z,1.10
2023-03-26T11:07:59.522Z,1.30
2023-03-26T11:08:59.521Z,1.00
2023-03-26T11:09:59.475Z,1.20
2023-03-26T11:10:59.477Z,0.80
2023-03-26T11:11:59.469Z,0.70
2023-03-26T11:12:59.439Z,0.60
2023-03-26T11:13:59.477Z,0.70
2023-03-26T11:14:59.461Z,0.90
2023-03-26T11:15:59.484Z,1.00
2023-03-26T11:16:59.412Z,0.80
2023-03-26T11:17:59.414Z,0.90
2023-03-26T11:18:59.369Z,0.70
2023-03-26T11:19:59.369Z,0.90
2023-03-26T11:21:19.341Z,0.80
2023-03-26T11:21:59.342Z,0.60
2023-03-26T11:22:59.294Z,0.70
2023-03-26T11:24:05.122Z,0.90
2023-03-26T11:24:59.317Z,0.80
2023-03-26T11:25:59.264Z,0.70
2023-03-26T11:27:15.017Z,1.10
2023-03-26T11:27:59.257Z,0.90
2023-03-26T11:29:03.856Z,0.60
2023-03-26T11:29:59.245Z,1.00
2023-03-26T11:30:59.363Z,0.60
2023-03-26T11:31:59.200Z,0.50
2023-03-26T11:32:59.262Z,0.70
2023-03-26T11:33:59.151Z,0.90
2023-03-26T11:34:59.163Z,0.90
2023-03-26T11:35:59.157Z,1.00
2023-03-26T11:36:59.115Z,0.60
2023-03-26T11:37:59.160Z,0.60
2023-03-26T11:38:59.124Z,0.90
2023-03-26T11:39:59.107Z,0.40
2023-03-26T11:40:59.139Z,1.10
2023-03-26T11:41:59.064Z,0.80
2023-03-26T11:42:59.074Z,0.70
2023-03-26T11:43:59.024Z,0.80
2023-03-26T11:44:59.020Z,0.80
2023-03-26T11:45:59.054Z,0.50
2023-03-26T11:46:59.104Z,0.60
2023-03-26T11:47:59.007Z,0.90
2023-03-26T11:48:58.981Z,0.70
2023-03-26T11:49:58.968Z,1.40
2023-03-26T11:50:58.951Z,0.70
2023-03-26T11:51:58.944Z,1.00
2023-03-26T11:52:58.932Z,0.80
2023-03-26T11:53:58.933Z,0.50
2023-03-26T11:54:58.883Z,0.80
2023-03-26T11:55:58.897Z,1.80
2023-03-26T11:57:06.196Z,0.50
2023-03-26T11:57:58.833Z,0.90
2023-03-26T11:58:58.824Z,0.70
2023-03-26T11:59:58.799Z,0.60
2023-03-26T12:00:58.805Z,0.80
2023-03-26T12:01:58.837Z,1.10
2023-03-26T12:02:58.859Z,1.10
2023-03-26T12:03:58.811Z,0.80
2023-03-26T12:04:58.757Z,0.70
2023-03-26T12:05:58.713Z,0.80
2023-03-26T12:06:58.722Z,0.90
2023-03-26T12:07:58.701Z,0.60
2023-03-26T12:08:58.722Z,0.80
2023-03-26T12:10:17.692Z,0.80
2023-03-26T12:10:58.649Z,1.00
2023-03-26T12:11:58.655Z,0.70
2023-03-26T12:12:58.646Z,0.50
2023-03-26T12:13:58.652Z,0.50
2023-03-26T12:14:58.603Z,0.70
2023-03-26T12:15:58.726Z,0.80
2023-03-26T12:16:58.581Z,0.80
2023-03-26T12:17:58.609Z,0.50
2023-03-26T12:18:58.550Z,0.90
2023-03-26T12:19:58.540Z,0.80
2023-03-26T12:20:58.534Z,0.70
2023-03-26T12:21:58.522Z,0.90
2023-03-26T12:22:58.498Z,1.10
2023-03-26T12:23:58.515Z,0.90
2023-03-26T12:24:58.470Z,0.50
2023-03-26T12:25:58.461Z,0.60
2023-03-26T12:26:58.463Z,0.70
2023-03-26T12:27:58.420Z,1.00
2023-03-26T12:28:58.398Z,0.60
2023-03-26T12:29:58.393Z,1.10
2023-03-26T12:30:58.408Z,0.90
2023-03-26T12:31:58.384Z,0.70
2023-03-26T12:32:58.399Z,0.60
2023-03-26T12:33:59.020Z,0.50
2023-03-26T12:34:58.328Z,0.50
2023-03-26T12:35:58.348Z,0.50
2023-03-26T12:36:58.314Z,0.40
2023-03-26T12:37:58.306Z,0.40
2023-03-26T12:39:16.176Z,0.30
2023-03-26T12:40:10.094Z,0.60
2023-03-26T12:40:58.277Z,0.60
2023-03-26T12:43:40.239Z,0.70
2023-03-26T12:44:59.783Z,0.60
2023-03-26T12:45:06.332Z,0.40
2023-03-26T12:47:54.857Z,0.50
2023-03-26T12:48:07.372Z,0.60
2023-03-26T12:48:13.419Z,0.80
2023-03-26T12:49:13.464Z,0.60
2023-03-26T12:50:13.394Z,0.60
2023-03-26T12:51:13.384Z,0.60
2023-03-26T12:52:13.339Z,0.50
2023-03-26T12:53:13.342Z,0.80
2023-03-26T12:54:13.293Z,0.60
2023-03-26T12:55:13.317Z,0.60
2023-03-26T12:56:13.326Z,0.60
2023-03-26T12:57:13.536Z,0.70
2023-03-26T12:58:14.107Z,0.50
2023-03-26T12:59:13.237Z,0.60
2023-03-26T13:00:13.214Z,0.50
2023-03-26T13:01:13.233Z,0.60
2023-03-26T13:02:13.282Z,0.70
2023-03-26T13:03:13.202Z,0.30
2023-03-26T13:04:13.185Z,0.60
2023-03-26T13:05:13.205Z,0.70
2023-03-26T13:06:13.159Z,0.90
2023-03-26T13:07:13.171Z,0.60
2023-03-26T13:08:13.130Z,0.40
2023-03-26T13:09:13.108Z,0.60
2023-03-26T13:10:13.160Z,0.60
2023-03-26T13:11:13.077Z,0.60
2023-03-26T13:12:13.054Z,0.50
2023-03-26T13:13:13.043Z,0.60
2023-03-26T13:14:13.021Z,0.70
2023-03-26T13:15:13.039Z,0.50
2023-03-26T13:16:13.006Z,0.50
2023-03-26T13:17:13.062Z,0.50
2023-03-26T13:18:13.031Z,0.40
2023-03-26T13:19:13.009Z,0.60